sensor_id;sensor_type;location;lat;lon;timestamp;pressure;altitude;pressure_sealevel;temperature;humidity
56928;BME280;60850;52.502;13.426;2022-12-07T00:01:43;100870.44;;;4.49;100.00
56928;BME280;60850;52.502;13.426;2022-12-07T00:04:14;100865.19;;;4.48;100.00
56928;BME280;60850;52.502;13.426;2022-12-07T00:06:43;100874.84;;;4.49;100.00
56928;BME280;60850;52.502;13.426;2022-12-07T00:09:12;100867.81;;;4.48;100.00
56928;BME280;60850;52.502;13.426;2022-12-07T00:11:40;100864.28;;;4.49;100.00
56928;BME280;60850;52.502;13.426;2022-12-07T00:14:11;100866.06;;;4.50;100.00
56928;BME280;60850;52.502;13.426;2022-12-07T00:16:40;100860.78;;;4.53;100.00
56928;BME280;60850;52.502;13.426;2022-12-07T00:19:09;100859.00;;;4.49;100.00
56928;BME280;60850;52.502;13.426;2022-12-07T00:21:36;100852.88;;;4.51;100.00
56928;BME280;60850;52.502;13.426;2022-12-07T00:24:05;100853.72;;;4.49;100.00
56928;BME280;60850;52.502;13.426;2022-12-07T00:26:34;100849.34;;;4.40;100.00
56928;BME280;60850;52.502;13.426;2022-12-07T00:29:03;100848.47;;;4.33;100.00
56928;BME280;60850;52.502;13.426;2022-12-07T00:31:33;100847.59;;;4.31;100.00
56928;BME280;60850;52.502;13.426;2022-12-07T00:34:04;100841.44;;;4.23;100.00
56928;BME280;60850;52.502;13.426;2022-12-07T00:36:31;100844.06;;;4.23;100.00
56928;BME280;60850;52.502;13.426;2022-12-07T00:38:59;100837.91;;;4.24;100.00
56928;BME280;60850;52.502;13.426;2022-12-07T00:41:28;100823.81;;;4.22;100.00
56928;BME280;60850;52.502;13.426;2022-12-07T00:43:56;100829.97;;;4.17;100.00
56928;BME280;60850;52.502;13.426;2022-12-07T00:46:24;100832.59;;;4.06;100.00
56928;BME280;60850;52.502;13.426;2022-12-07T00:48:53;100831.72;;;3.96;100.00
56928;BME280;60850;52.502;13.426;2022-12-07T00:51:22;100826.41;;;3.93;100.00
56928;BME280;60850;52.502;13.426;2022-12-07T00:53:50;100835.19;;;3.84;100.00
56928;BME280;60850;52.502;13.426;2022-12-07T00:56:20;100832.53;;;3.78;100.00
56928;BME280;60850;52.502;13.426;2022-12-07T00:58:50;100829.00;;;3.73;100.00
56928;BME280;60850;52.502;13.426;2022-12-07T01:01:17;100832.50;;;3.72;100.00
56928;BME280;60850;52.502;13.426;2022-12-07T01:03:44;100819.34;;;3.71;100.00
56928;BME280;60850;52.502;13.426;2022-12-07T01:06:14;100819.31;;;3.66;100.00
56928;BME280;60850;52.502;13.426;2022-12-07T01:08:44;100821.06;;;3.63;100.00
56928;BME280;60850;52.502;13.426;2022-12-07T01:11:13;100815.75;;;3.50;100.00
56928;BME280;60850;52.502;13.426;2022-12-07T01:13:41;100821.88;;;3.43;100.00
56928;BME280;60850;52.502;13.426;2022-12-07T01:16:11;100821.03;;;3.46;100.00
56928;BME280;60850;52.502;13.426;2022-12-07T01:18:39;100816.63;;;3.48;100.00
56928;BME280;60850;52.502;13.426;2022-12-07T01:21:08;100816.66;;;3.52;100.00
56928;BME280;60850;52.502;13.426;2022-12-07T01:23:36;100806.09;;;3.57;100.00
56928;BME280;60850;52.502;13.426;2022-12-07T01:26:07;100806.13;;;3.65;100.00
56928;BME280;60850;52.502;13.426;2022-12-07T01:28:36;100804.41;;;3.68;100.00
56928;BME280;60850;52.502;13.426;2022-12-07T01:31:06;100804.38;;;3.71;100.00
56928;BME280;60850;52.502;13.426;2022-12-07T01:33:35;100809.69;;;3.74;100.00
56928;BME280;60850;52.502;13.426;2022-12-07T01:36:03;100804.41;;;3.74;100.00
56928;BME280;60850;52.502;13.426;2022-12-07T01:38:31;100798.25;;;3.74;100.00
56928;BME280;60850;52.502;13.426;2022-12-07T01:41:00;100799.13;;;3.71;100.00
56928;BME280;60850;52.502;13.426;2022-12-07T01:43:32;100796.50;;;3.68;100.00
56928;BME280;60850;52.502;13.426;2022-12-07T01:46:00;100798.22;;;3.63;100.00
56928;BME280;60850;52.502;13.426;2022-12-07T01:48:29;100800.84;;;3.63;100.00
56928;BME280;60850;52.502;13.426;2022-12-07T01:51:01;100792.06;;;3.66;100.00
56928;BME280;60850;52.502;13.426;2022-12-07T01:53:30;100785.94;;;3.68;100.00
56928;BME280;60850;52.502;13.426;2022-12-07T01:56:00;100786.81;;;3.69;100.00
56928;BME280;60850;52.502;13.426;2022-12-07T01:58:31;100779.78;;;3.69;100.00
56928;BME280;60850;52.502;13.426;2022-12-07T02:00:58;100775.38;;;3.71;100.00
56928;BME280;60850;52.502;13.426;2022-12-07T02:03:30;100773.66;;;3.75;100.00
56928;BME280;60850;52.502;13.426;2022-12-07T02:05:59;100770.13;;;3.73;100.00
56928;BME280;60850;52.502;13.426;2022-12-07T02:08:27;100765.72;;;3.73;100.00
56928;BME280;60850;52.502;13.426;2022-12-07T02:10:54;100772.75;;;3.73;100.00
56928;BME280;60850;52.502;13.426;2022-12-07T02:13:23;100778.91;;;3.72;100.00
56928;BME280;60850;52.502;13.426;2022-12-07T02:16:06;100770.13;;;3.71;100.00
56928;BME280;60850;52.502;13.426;2022-12-07T02:18:46;100765.72;;;3.67;100.00
56928;BME280;60850;52.502;13.426;2022-12-07T02:21:20;100769.22;;;3.60;100.00
56928;BME280;60850;52.502;13.426;2022-12-07T02:24:14;100763.06;;;3.55;100.00
56928;BME280;60850;52.502;13.426;2022-12-07T02:29:44;100756.00;;;3.49;100.00
56928;BME280;60850;52.502;13.426;2022-12-07T02:32:14;100760.41;;;3.46;100.00
56928;BME280;60850;52.502;13.426;2022-12-07T02:34:48;100754.22;;;3.42;100.00
56928;BME280;60850;52.502;13.426;2022-12-07T02:37:24;100748.09;;;3.39;100.00
56928;BME280;60850;52.502;13.426;2022-12-07T02:39:58;100744.56;;;3.35;100.00
56928;BME280;60850;52.502;13.426;2022-12-07T02:42:30;100745.44;;;3.33;100.00
56928;BME280;60850;52.502;13.426;2022-12-07T02:45:01;100737.47;;;3.23;100.00
56928;BME280;60850;52.502;13.426;2022-12-07T02:47:29;100732.22;;;3.17;100.00
56928;BME280;60850;52.502;13.426;2022-12-07T02:49:59;100733.94;;;3.11;100.00
56928;BME280;60850;52.502;13.426;2022-12-07T02:52:26;100740.97;;;3.10;100.00
56928;BME280;60850;52.502;13.426;2022-12-07T02:54:53;100735.69;;;3.13;100.00
56928;BME280;60850;52.502;13.426;2022-12-07T02:57:41;100735.69;;;3.13;100.00
56928;BME280;60850;52.502;13.426;2022-12-07T03:00:16;100722.53;;;3.13;100.00
56928;BME280;60850;52.502;13.426;2022-12-07T03:02:51;100725.16;;;3.13;100.00
56928;BME280;60850;52.502;13.426;2022-12-07T03:05:34;100725.16;;;3.13;100.00
56928;BME280;60850;52.502;13.426;2022-12-07T03:08:09;100723.41;;;3.12;100.00
56928;BME280;60850;52.502;13.426;2022-12-07T03:10:46;100716.38;;;3.16;100.00
56928;BME280;60850;52.502;13.426;2022-12-07T03:13:21;100719.94;;;3.25;100.00
56928;BME280;60850;52.502;13.426;2022-12-07T03:15:57;100709.41;;;3.28;100.00
56928;BME280;60850;52.502;13.426;2022-12-07T03:18:31;100709.41;;;3.35;100.00
56928;BME280;60850;52.502;13.426;2022-12-07T03:21:05;100703.28;;;3.33;100.00
56928;BME280;60850;52.502;13.426;2022-12-07T03:23:34;100688.34;;;3.32;100.00
56928;BME280;60850;52.502;13.426;2022-12-07T03:26:06;100684.81;;;3.36;100.00
56928;BME280;60850;52.502;13.426;2022-12-07T03:28:39;100692.75;;;3.39;100.00
56928;BME280;60850;52.502;13.426;2022-12-07T03:31:14;100690.97;;;3.44;100.00
56928;BME280;60850;52.502;13.426;2022-12-07T03:33:49;100678.69;;;3.43;100.00
56928;BME280;60850;52.502;13.426;2022-12-07T03:36:23;100676.06;;;3.43;100.00
56928;BME280;60850;52.502;13.426;2022-12-07T03:38:57;100654.97;;;3.43;100.00
56928;BME280;60850;52.502;13.426;2022-12-07T03:41:31;100656.75;;;3.47;100.00
56928;BME280;60850;52.502;13.426;2022-12-07T03:44:00;100647.94;;;3.45;100.00
56928;BME280;60850;52.502;13.426;2022-12-07T03:46:36;100647.06;;;3.49;100.00
56928;BME280;60850;52.502;13.426;2022-12-07T03:49:12;100642.66;;;3.45;100.00
56928;BME280;60850;52.502;13.426;2022-12-07T03:51:48;100634.78;;;3.40;100.00
56928;BME280;60850;52.502;13.426;2022-12-07T03:54:19;100628.63;;;3.44;100.00
56928;BME280;60850;52.502;13.426;2022-12-07T03:56:49;100631.28;;;3.46;100.00
56928;BME280;60850;52.502;13.426;2022-12-07T03:59:17;100625.09;;;3.44;100.00
56928;BME280;60850;52.502;13.426;2022-12-07T04:01:53;100621.59;;;3.45;100.00
56928;BME280;60850;52.502;13.426;2022-12-07T04:04:21;100621.59;;;3.48;100.00
56928;BME280;60850;52.502;13.426;2022-12-07T04:06:48;100619.84;;;3.44;100.00
56928;BME280;60850;52.502;13.426;2022-12-07T04:09:16;100618.09;;;3.49;100.00
56928;BME280;60850;52.502;13.426;2022-12-07T04:11:44;100614.59;;;3.47;100.00
56928;BME280;60850;52.502;13.426;2022-12-07T04:14:11;100613.72;;;3.39;100.00
56928;BME280;60850;52.502;13.426;2022-12-07T04:16:47;100617.22;;;3.33;100.00
56928;BME280;60850;52.502;13.426;2022-12-07T04:19:17;100612.81;;;3.43;100.00
56928;BME280;60850;52.502;13.426;2022-12-07T04:21:44;100589.09;;;3.27;100.00
56928;BME280;60850;52.502;13.426;2022-12-07T04:24:12;100605.78;;;3.36;100.00
56928;BME280;60850;52.502;13.426;2022-12-07T04:26:40;100609.28;;;3.35;100.00
56928;BME280;60850;52.502;13.426;2022-12-07T04:29:07;100603.16;;;3.36;100.00
56928;BME280;60850;52.502;13.426;2022-12-07T04:31:34;100601.38;;;3.38;100.00
56928;BME280;60850;52.502;13.426;2022-12-07T04:34:02;100592.59;;;3.37;100.00
56928;BME280;60850;52.502;13.426;2022-12-07T04:36:32;100592.59;;;3.37;100.00
56928;BME280;60850;52.502;13.426;2022-12-07T04:38:59;100585.59;;;3.39;100.00
56928;BME280;60850;52.502;13.426;2022-12-07T04:41:27;100589.13;;;3.46;100.00
56928;BME280;60850;52.502;13.426;2022-12-07T04:43:55;100580.28;;;3.45;100.00
56928;BME280;60850;52.502;13.426;2022-12-07T04:46:23;100575.94;;;3.41;100.00
56928;BME280;60850;52.502;13.426;2022-12-07T04:48:50;100580.31;;;3.39;100.00
56928;BME280;60850;52.502;13.426;2022-12-07T04:51:20;100580.31;;;3.36;100.00
56928;BME280;60850;52.502;13.426;2022-12-07T04:53:49;100575.03;;;3.35;100.00
56928;BME280;60850;52.502;13.426;2022-12-07T04:56:16;100572.41;;;3.35;100.00
56928;BME280;60850;52.502;13.426;2022-12-07T04:58:45;100573.28;;;3.40;100.00
56928;BME280;60850;52.502;13.426;2022-12-07T05:01:13;100571.53;;;3.46;100.00
56928;BME280;60850;52.502;13.426;2022-12-07T05:03:40;100575.06;;;3.47;100.00
56928;BME280;60850;52.502;13.426;2022-12-07T05:06:09;100568.03;;;3.47;100.00
56928;BME280;60850;52.502;13.426;2022-12-07T05:08:36;100560.09;;;3.49;100.00
56928;BME280;60850;52.502;13.426;2022-12-07T05:11:07;100558.34;;;3.49;100.00
56928;BME280;60850;52.502;13.426;2022-12-07T05:13:35;100560.97;;;3.49;100.00
56928;BME280;60850;52.502;13.426;2022-12-07T05:16:02;100559.22;;;3.50;100.00
56928;BME280;60850;52.502;13.426;2022-12-07T05:18:30;100561.00;;;3.54;100.00
56928;BME280;60850;52.502;13.426;2022-12-07T05:20:57;100553.94;;;3.59;100.00
56928;BME280;60850;52.502;13.426;2022-12-07T05:23:24;100550.41;;;3.65;100.00
56928;BME280;60850;52.502;13.426;2022-12-07T05:25:51;100557.47;;;3.69;100.00
56928;BME280;60850;52.502;13.426;2022-12-07T05:28:19;100548.66;;;3.73;100.00
56928;BME280;60850;52.502;13.426;2022-12-07T05:30:46;100546.03;;;3.71;100.00
56928;BME280;60850;52.502;13.426;2022-12-07T05:33:13;100549.53;;;3.76;100.00
56928;BME280;60850;52.502;13.426;2022-12-07T05:35:40;100539.88;;;3.75;100.00
56928;BME280;60850;52.502;13.426;2022-12-07T05:38:07;100541.63;;;3.76;100.00
56928;BME280;60850;52.502;13.426;2022-12-07T05:40:36;100542.50;;;3.75;100.00
56928;BME280;60850;52.502;13.426;2022-12-07T05:43:03;100538.09;;;3.82;100.00
56928;BME280;60850;52.502;13.426;2022-12-07T05:45:32;100539.84;;;3.86;100.00
56928;BME280;60850;52.502;13.426;2022-12-07T05:47:59;100532.81;;;3.83;100.00
56928;BME280;60850;52.502;13.426;2022-12-07T05:50:26;100532.78;;;3.86;100.00
56928;BME280;60850;52.502;13.426;2022-12-07T05:52:53;100535.44;;;3.80;100.00
56928;BME280;60850;52.502;13.426;2022-12-07T05:55:20;100527.53;;;3.83;100.00
56928;BME280;60850;52.502;13.426;2022-12-07T05:57:47;100520.50;;;3.85;100.00
56928;BME280;60850;52.502;13.426;2022-12-07T06:00:28;100514.34;;;3.85;100.00
56928;BME280;60850;52.502;13.426;2022-12-07T06:02:56;100526.66;;;3.91;100.00
56928;BME280;60850;52.502;13.426;2022-12-07T06:05:24;100516.09;;;3.95;100.00
56928;BME280;60850;52.502;13.426;2022-12-07T06:07:51;100513.41;;;4.01;100.00
56928;BME280;60850;52.502;13.426;2022-12-07T06:10:18;100494.94;;;4.01;100.00
56928;BME280;60850;52.502;13.426;2022-12-07T06:12:45;100500.19;;;4.07;100.00
56928;BME280;60850;52.502;13.426;2022-12-07T06:15:12;100494.94;;;4.09;100.00
56928;BME280;60850;52.502;13.426;2022-12-07T06:17:39;100495.78;;;4.14;100.00
56928;BME280;60850;52.502;13.426;2022-12-07T06:20:08;100494.03;;;4.18;100.00
56928;BME280;60850;52.502;13.426;2022-12-07T06:22:35;100491.41;;;4.16;100.00
56928;BME280;60850;52.502;13.426;2022-12-07T06:25:03;100491.38;;;4.19;100.00
56928;BME280;60850;52.502;13.426;2022-12-07T06:27:30;100495.75;;;4.20;100.00
56928;BME280;60850;52.502;13.426;2022-12-07T06:29:58;100495.75;;;4.16;100.00
56928;BME280;60850;52.502;13.426;2022-12-07T06:32:25;100489.63;;;4.15;100.00
56928;BME280;60850;52.502;13.426;2022-12-07T06:34:53;100491.38;;;4.14;100.00
56928;BME280;60850;52.502;13.426;2022-12-07T06:37:21;100487.03;;;4.10;100.00
56928;BME280;60850;52.502;13.426;2022-12-07T06:39:48;100493.13;;;4.16;100.00
56928;BME280;60850;52.502;13.426;2022-12-07T06:42:15;100494.03;;;4.16;100.00
56928;BME280;60850;52.502;13.426;2022-12-07T06:44:42;100490.47;;;4.20;100.00
56928;BME280;60850;52.502;13.426;2022-12-07T06:47:09;100491.41;;;4.16;100.00
56928;BME280;60850;52.502;13.426;2022-12-07T06:49:37;100495.75;;;4.16;100.00
56928;BME280;60850;52.502;13.426;2022-12-07T06:52:04;100494.00;;;4.19;100.00
56928;BME280;60850;52.502;13.426;2022-12-07T06:54:33;100492.19;;;4.27;100.00
56928;BME280;60850;52.502;13.426;2022-12-07T06:57:00;100492.22;;;4.30;100.00
56928;BME280;60850;52.502;13.426;2022-12-07T06:59:27;100484.28;;;4.30;100.00
56928;BME280;60850;52.502;13.426;2022-12-07T07:01:54;100486.91;;;4.33;100.00
56928;BME280;60850;52.502;13.426;2022-12-07T07:04:21;100491.28;;;4.34;100.00
56928;BME280;60850;52.502;13.426;2022-12-07T07:06:49;100479.84;;;4.37;100.00
56928;BME280;60850;52.502;13.426;2022-12-07T07:09:16;100480.69;;;4.40;100.00
56928;BME280;60850;52.502;13.426;2022-12-07T07:11:44;100481.56;;;4.44;100.00
56928;BME280;60850;52.502;13.426;2022-12-07T07:14:11;100485.09;;;4.45;100.00
56928;BME280;60850;52.502;13.426;2022-12-07T07:16:38;100476.25;;;4.49;100.00
56928;BME280;60850;52.502;13.426;2022-12-07T07:19:06;100480.63;;;4.50;100.00
56928;BME280;60850;52.502;13.426;2022-12-07T07:21:33;100487.69;;;4.48;100.00
56928;BME280;60850;52.502;13.426;2022-12-07T07:24:00;100485.91;;;4.50;100.00
56928;BME280;60850;52.502;13.426;2022-12-07T07:26:27;100489.44;;;4.52;100.00
56928;BME280;60850;52.502;13.426;2022-12-07T07:28:55;100486.75;;;4.58;100.00
56928;BME280;60850;52.502;13.426;2022-12-07T07:31:22;100487.63;;;4.60;100.00
56928;BME280;60850;52.502;13.426;2022-12-07T07:33:49;100488.50;;;4.60;100.00
56928;BME280;60850;52.502;13.426;2022-12-07T07:36:17;100485.03;;;4.54;100.00
56928;BME280;60850;52.502;13.426;2022-12-07T07:38:44;100480.59;;;4.57;100.00
56928;BME280;60850;52.502;13.426;2022-12-07T07:41:11;100478.88;;;4.49;100.00
56928;BME280;60850;52.502;13.426;2022-12-07T07:43:38;100469.28;;;4.38;100.00
56928;BME280;60850;52.502;13.426;2022-12-07T07:46:06;100486.91;;;4.33;100.00
56928;BME280;60850;52.502;13.426;2022-12-07T07:48:34;100481.63;;;4.29;100.00
56928;BME280;60850;52.502;13.426;2022-12-07T07:51:05;100489.53;;;4.33;100.00
56928;BME280;60850;52.502;13.426;2022-12-07T07:53:32;100485.09;;;4.45;100.00
56928;BME280;60850;52.502;13.426;2022-12-07T07:55:59;100474.44;;;4.55;100.00
56928;BME280;60850;52.502;13.426;2022-12-07T07:58:27;100481.44;;;4.62;100.00
56928;BME280;60850;52.502;13.426;2022-12-07T08:00:54;100482.25;;;4.72;100.00
56928;BME280;60850;52.502;13.426;2022-12-07T08:03:22;100481.28;;;4.84;100.00
56928;BME280;60850;52.502;13.426;2022-12-07T08:05:49;100482.13;;;4.93;100.00
56928;BME280;60850;52.502;13.426;2022-12-07T08:08:16;100478.56;;;4.97;100.00
56928;BME280;60850;52.502;13.426;2022-12-07T08:10:43;100489.94;;;5.04;100.00
56928;BME280;60850;52.502;13.426;2022-12-07T08:13:10;100487.16;;;5.21;100.00
56928;BME280;60850;52.502;13.426;2022-12-07T08:15:39;100498.50;;;5.34;100.00
56928;BME280;60850;52.502;13.426;2022-12-07T08:18:07;100496.78;;;5.30;100.00
56928;BME280;60850;52.502;13.426;2022-12-07T08:20:36;100491.53;;;5.25;100.00
56928;BME280;60850;52.502;13.426;2022-12-07T08:23:05;100495.94;;;5.26;100.00
56928;BME280;60850;52.502;13.426;2022-12-07T08:25:33;100494.19;;;5.25;100.00
56928;BME280;60850;52.502;13.426;2022-12-07T08:28:00;100495.91;;;5.28;100.00
56928;BME280;60850;52.502;13.426;2022-12-07T08:30:27;100497.59;;;5.35;100.00
56928;BME280;60850;52.502;13.426;2022-12-07T08:32:55;100494.94;;;5.39;100.00
56928;BME280;60850;52.502;13.426;2022-12-07T08:35:23;100496.59;;;5.48;100.00
56928;BME280;60850;52.502;13.426;2022-12-07T08:37:52;100503.66;;;5.50;100.00
56928;BME280;60850;52.502;13.426;2022-12-07T08:40:19;100500.09;;;5.51;100.00
56928;BME280;60850;52.502;13.426;2022-12-07T08:42:48;100495.66;;;5.55;100.00
56928;BME280;60850;52.502;13.426;2022-12-07T08:45:17;100503.56;;;5.60;100.00
56928;BME280;60850;52.502;13.426;2022-12-07T08:47:48;100506.16;;;5.63;100.00
56928;BME280;60850;52.502;13.426;2022-12-07T08:50:17;100502.59;;;5.67;100.00
56928;BME280;60850;52.502;13.426;2022-12-07T08:52:48;100503.47;;;5.67;100.00
56928;BME280;60850;52.502;13.426;2022-12-07T08:55:18;100510.50;;;5.71;100.00
56928;BME280;60850;52.502;13.426;2022-12-07T08:57:47;100510.44;;;5.76;100.00
56928;BME280;60850;52.502;13.426;2022-12-07T09:00:15;100513.97;;;5.75;100.00
56928;BME280;60850;52.502;13.426;2022-12-07T09:02:43;100506.13;;;5.67;100.00
56928;BME280;60850;52.502;13.426;2022-12-07T09:05:10;100514.81;;;5.77;100.00
56928;BME280;60850;52.502;13.426;2022-12-07T09:07:38;100518.34;;;5.76;100.00
56928;BME280;60850;52.502;13.426;2022-12-07T09:10:06;100511.25;;;5.81;100.00
56928;BME280;60850;52.502;13.426;2022-12-07T09:12:35;100516.47;;;5.89;100.00
56928;BME280;60850;52.502;13.426;2022-12-07T09:15:02;100519.09;;;5.89;100.00
56928;BME280;60850;52.502;13.426;2022-12-07T09:17:32;100515.63;;;5.84;100.00
56928;BME280;60850;52.502;13.426;2022-12-07T09:19:59;100520.91;;;5.87;100.00
56928;BME280;60850;52.502;13.426;2022-12-07T09:22:28;100526.22;;;5.85;100.00
56928;BME280;60850;52.502;13.426;2022-12-07T09:24:55;100538.56;;;5.83;100.00
56928;BME280;60850;52.502;13.426;2022-12-07T09:27:23;100530.69;;;5.80;100.00
56928;BME280;60850;52.502;13.426;2022-12-07T09:29:51;100537.81;;;5.72;100.00
56928;BME280;60850;52.502;13.426;2022-12-07T09:32:19;100536.88;;;5.76;100.00
56928;BME280;60850;52.502;13.426;2022-12-07T09:34:46;100535.97;;;5.77;100.00
56928;BME280;60850;52.502;13.426;2022-12-07T09:37:13;100539.56;;;5.73;100.00
56928;BME280;60850;52.502;13.426;2022-12-07T09:39:43;100536.88;;;5.76;100.00
56928;BME280;60850;52.502;13.426;2022-12-07T09:42:24;100540.47;;;5.72;100.00
56928;BME280;60850;52.502;13.426;2022-12-07T09:44:54;100544.91;;;5.67;100.00
56928;BME280;60850;52.502;13.426;2022-12-07T09:47:21;100542.22;;;5.71;100.00
56928;BME280;60850;52.502;13.426;2022-12-07T09:49:48;100548.44;;;5.66;100.00
56928;BME280;60850;52.502;13.426;2022-12-07T09:52:19;100542.25;;;5.67;100.00
56928;BME280;60850;52.502;13.426;2022-12-07T09:54:50;100552.91;;;5.61;100.00
56928;BME280;60850;52.502;13.426;2022-12-07T09:57:27;100548.50;;;5.60;100.00
56928;BME280;60850;52.502;13.426;2022-12-07T09:59:56;100554.69;;;5.59;100.00
56928;BME280;60850;52.502;13.426;2022-12-07T10:02:35;100557.25;;;5.68;100.00
56928;BME280;60850;52.502;13.426;2022-12-07T10:05:04;100552.00;;;5.65;100.00
56928;BME280;60850;52.502;13.426;2022-12-07T10:07:32;100553.78;;;5.60;100.00
56928;BME280;60850;52.502;13.426;2022-12-07T10:10:03;100552.09;;;5.49;100.00
56928;BME280;60850;52.502;13.426;2022-12-07T10:12:30;100558.28;;;5.48;100.00
56928;BME280;60850;52.502;13.426;2022-12-07T10:15:13;100546.94;;;5.37;100.00
56928;BME280;60850;52.502;13.426;2022-12-07T10:17:47;100553.06;;;5.41;100.00
56928;BME280;60850;52.502;13.426;2022-12-07T10:20:23;100554.88;;;5.37;100.00
56928;BME280;60850;52.502;13.426;2022-12-07T10:22:59;100551.31;;;5.40;100.00
56928;BME280;60850;52.502;13.426;2022-12-07T10:25:28;100562.81;;;5.34;100.00
56928;BME280;60850;52.502;13.426;2022-12-07T10:27:59;100552.19;;;5.40;100.00
56928;BME280;60850;52.502;13.426;2022-12-07T10:30:28;100550.47;;;5.36;100.00
56928;BME280;60850;52.502;13.426;2022-12-07T10:32:55;100547.78;;;5.41;100.00
56928;BME280;60850;52.502;13.426;2022-12-07T10:35:25;100539.16;;;5.19;100.00
56928;BME280;60850;52.502;13.426;2022-12-07T10:37:53;100556.03;;;4.98;100.00
56928;BME280;60850;52.502;13.426;2022-12-07T10:40:30;100543.81;;;4.83;100.00
56928;BME280;60850;52.502;13.426;2022-12-07T10:43:04;100540.34;;;4.75;100.00
56928;BME280;60850;52.502;13.426;2022-12-07T10:45:35;100554.44;;;4.74;100.00
56928;BME280;60850;52.502;13.426;2022-12-07T10:48:12;100550.91;;;4.75;100.00
56928;BME280;60850;52.502;13.426;2022-12-07T10:50:53;100546.47;;;4.80;100.00
56928;BME280;60850;52.502;13.426;2022-12-07T10:53:38;100543.75;;;4.91;100.00
56928;BME280;60850;52.502;13.426;2022-12-07T10:56:33;100540.22;;;4.96;100.00
56928;BME280;60850;52.502;13.426;2022-12-07T10:59:29;100542.78;;;5.09;100.00
56928;BME280;60850;52.502;13.426;2022-12-07T11:02:17;100531.22;;;5.22;100.00
56928;BME280;60850;52.502;13.426;2022-12-07T11:04:59;100544.41;;;5.23;100.00
56928;BME280;60850;52.502;13.426;2022-12-07T11:07:38;100532.91;;;5.31;100.00
56928;BME280;60850;52.502;13.426;2022-12-07T11:10:13;100540.78;;;5.37;100.00
56928;BME280;60850;52.502;13.426;2022-12-07T11:13:03;100541.53;;;5.49;100.00
56928;BME280;60850;52.502;13.426;2022-12-07T11:15:41;100543.22;;;5.57;100.00
56928;BME280;60850;52.502;13.426;2022-12-07T11:18:19;100539.63;;;5.65;100.00
56928;BME280;60850;52.502;13.426;2022-12-07T11:20:54;100540.47;;;5.72;100.00
56928;BME280;60850;52.502;13.426;2022-12-07T11:23:42;100537.78;;;5.75;100.00
56928;BME280;60850;52.502;13.426;2022-12-07T11:26:21;100529.81;;;5.79;100.00
56928;BME280;60850;52.502;13.426;2022-12-07T11:29:06;100537.72;;;5.81;100.00
56928;BME280;60850;52.502;13.426;2022-12-07T11:31:46;100529.03;;;5.68;100.00
56928;BME280;60850;52.502;13.426;2022-12-07T11:34:22;100526.34;;;5.70;100.00
56928;BME280;60850;52.502;13.426;2022-12-07T11:36:56;100528.19;;;5.63;100.00
56928;BME280;60850;52.502;13.426;2022-12-07T11:39:26;100526.47;;;5.59;100.00
56928;BME280;60850;52.502;13.426;2022-12-07T11:42:01;100522.94;;;5.60;100.00
56928;BME280;60850;52.502;13.426;2022-12-07T11:44:33;100522.00;;;5.66;100.00
56928;BME280;60850;52.502;13.426;2022-12-07T11:47:07;100520.19;;;5.69;100.00
56928;BME280;60850;52.502;13.426;2022-12-07T11:49:49;100524.59;;;5.70;100.00
56928;BME280;60850;52.502;13.426;2022-12-07T11:52:22;100530.72;;;5.74;100.00
56928;BME280;60850;52.502;13.426;2022-12-07T11:54:52;100515.69;;;5.79;100.00
56928;BME280;60850;52.502;13.426;2022-12-07T11:57:25;100523.56;;;5.85;100.00
56928;BME280;60850;52.502;13.426;2022-12-07T12:00:00;100516.44;;;5.90;100.00
56928;BME280;60850;52.502;13.426;2022-12-07T12:02:33;100512.06;;;5.92;100.00
56928;BME280;60850;52.502;13.426;2022-12-07T12:05:13;100507.66;;;5.88;100.00
56928;BME280;60850;52.502;13.426;2022-12-07T12:07:43;100509.44;;;5.85;100.00
56928;BME280;60850;52.502;13.426;2022-12-07T12:10:18;100504.16;;;5.83;100.00
56928;BME280;60850;52.502;13.426;2022-12-07T12:13:22;100512.06;;;5.92;100.00
56928;BME280;60850;52.502;13.426;2022-12-07T12:16:05;100496.19;;;5.91;100.00
56928;BME280;60850;52.502;13.426;2022-12-07T12:18:57;100499.72;;;5.93;100.00
56928;BME280;60850;52.502;13.426;2022-12-07T12:21:31;100498.72;;;6.01;100.00
56928;BME280;60850;52.502;13.426;2022-12-07T12:24:00;100495.09;;;6.09;100.00
56928;BME280;60850;52.502;13.426;2022-12-07T12:26:31;100503.88;;;6.14;100.00
56928;BME280;60850;52.502;13.426;2022-12-07T12:29:00;100491.53;;;6.11;100.00
56928;BME280;60850;52.502;13.426;2022-12-07T12:31:34;100503.06;;;6.05;100.00
56928;BME280;60850;52.502;13.426;2022-12-07T12:34:04;100495.13;;;6.05;100.00
56928;BME280;60850;52.502;13.426;2022-12-07T12:36:47;100501.25;;;6.11;100.00
56928;BME280;60850;52.502;13.426;2022-12-07T12:39:15;100488.84;;;6.13;100.00
56928;BME280;60850;52.502;13.426;2022-12-07T12:41:56;100491.63;;;6.03;100.00
56928;BME280;60850;52.502;13.426;2022-12-07T12:44:41;100495.13;;;6.05;100.00
56928;BME280;60850;52.502;13.426;2022-12-07T12:47:42;100488.91;;;6.10;100.00
56928;BME280;60850;52.502;13.426;2022-12-07T12:50:17;100493.34;;;6.09;100.00
56928;BME280;60850;52.502;13.426;2022-12-07T12:56:19;100485.56;;;5.95;100.00
56928;BME280;60850;52.502;13.426;2022-12-07T12:58:48;100485.63;;;5.88;100.00
56928;BME280;60850;52.502;13.426;2022-12-07T13:01:42;100493.56;;;5.86;100.00
56928;BME280;60850;52.502;13.426;2022-12-07T13:04:39;100490.09;;;5.81;100.00
56928;BME280;60850;52.502;13.426;2022-12-07T13:07:30;100475.13;;;5.77;100.00